Suffolk, Texas
Current Conditions -  °F | °C
As of 4:35 PM on Monday 20 Oct 2014 (Local Time) from KOSA Reporting Station
Clear Clear  
Wind Chill: 77°   Ceiling: Unl
Heat Index: 79°   Visibility: 7mi
Dew Point: 56°   Wind: 0mph
Humidity: 47%   Direction: NA
Pressure: 30.04"   Gusts: NA
Location:  32.7353°N, 94.9492°W
Report Text: KOSA 202135Z AUTO 00000KT 7SM CLR 25/13 A3004 RMK AO1 T02520132
Loading
Personal Weather Stations






























Interactive Weather Map New forecast layout! Learn more

10-Day Weather Forecast

Advertisements
Track Severe Weather on mobile